Time;durP1;ratioP1;P1;durP2;ratioP2;P2;SDS_P1;SDS_P2;PMS_P1;PMS_P2;Temp;Humidity;BMP_temperature;BMP_pressure;BME280_temperature;BME280_humidity;BME280_pressure;Samples;Min_cycle;Max_cycle;Signal;HPM_P1;HPM_P2
2021/01/12 00:00:08;;;;;;;28.92;16.88;;;-0.90;99.90;;;;;;5076531;28;20070;-70
2021/01/12 00:02:34;;;;;;;33.88;17.45;;;-0.90;99.90;;;;;;5076644;28;20051;-71
2021/01/12 00:05:00;;;;;;;32.13;16.73;;;-0.80;99.90;;;;;;5058922;28;20474;-70
2021/01/12 00:07:25;;;;;;;31.52;17.15;;;-0.90;99.90;;;;;;5089723;28;20024;-72
2021/01/12 00:09:51;;;;;;;30.95;16.15;;;-0.90;99.90;;;;;;5073720;28;20025;-71
2021/01/12 00:12:20;;;;;;;31.45;16.63;;;-0.90;99.90;;;;;;5086976;28;20028;-70
2021/01/12 00:14:46;;;;;;;30.67;16.67;;;-0.90;99.90;;;;;;5090485;28;20043;-70
2021/01/12 00:17:12;;;;;;;32.38;15.63;;;-0.80;99.90;;;;;;5080259;28;20036;-72
2021/01/12 00:19:39;;;;;;;26.35;14.75;;;-0.80;99.90;;;;;;5090322;28;20051;-72
2021/01/12 00:22:14;;;;;;;26.83;14.32;;;-0.80;99.90;;;;;;5091889;28;20031;-72
2021/01/12 00:24:47;;;;;;;27.60;15.18;;;-0.90;99.90;;;;;;5062309;28;20148;-72
2021/01/12 00:27:16;;;;;;;30.08;15.32;;;-0.90;99.90;;;;;;5075298;28;20095;-71
2021/01/12 00:29:42;;;;;;;28.27;15.77;;;-1.00;99.90;;;;;;5058113;28;20490;-72
2021/01/12 00:32:18;;;;;;;31.08;15.73;;;-1.00;99.90;;;;;;5075646;28;20371;-70
2021/01/12 00:34:45;;;;;;;29.23;16.40;;;-1.10;99.90;;;;;;5074143;28;20069;-71
2021/01/12 00:37:11;;;;;;;25.58;14.15;;;-1.00;99.90;;;;;;5055764;28;20024;-71
2021/01/12 00:39:36;;;;;;;30.75;16.55;;;-1.00;99.90;;;;;;5073047;28;20111;-70
2021/01/12 00:42:02;;;;;;;30.95;16.48;;;-1.00;99.90;;;;;;5073876;28;20102;-71
2021/01/12 00:44:28;;;;;;;29.17;15.63;;;-1.00;99.90;;;;;;5072776;28;20023;-71
2021/01/12 00:46:57;;;;;;;30.27;16.90;;;-1.00;99.90;;;;;;5073288;28;20099;-70
2021/01/12 00:49:24;;;;;;;27.20;15.05;;;-1.00;99.90;;;;;;5073892;28;20094;-71
2021/01/12 00:51:50;;;;;;;27.73;15.32;;;-1.00;99.90;;;;;;5073319;28;20031;-71
2021/01/12 00:54:22;;;;;;;29.88;15.73;;;-1.00;99.90;;;;;;5071922;28;20024;-71
2021/01/12 00:56:49;;;;;;;27.88;15.82;;;-1.00;99.90;;;;;;5073124;28;20032;-70
2021/01/12 00:59:15;;;;;;;34.15;15.55;;;-1.10;99.90;;;;;;5055054;28;20063;-72
2021/01/12 01:01:41;;;;;;;28.00;14.07;;;-1.10;99.90;;;;;;5073083;28;20064;-72
2021/01/12 01:04:07;;;;;;;25.23;14.48;;;-1.10;99.90;;;;;;5072454;28;20070;-70
2021/01/12 01:06:33;;;;;;;30.95;17.33;;;-1.20;99.90;;;;;;5072703;28;20490;-72
2021/01/12 01:08:59;;;;;;;26.80;15.10;;;-1.20;99.90;;;;;;5072991;28;20036;-70
2021/01/12 01:11:25;;;;;;;28.77;14.68;;;-1.20;99.90;;;;;;5072689;28;20028;-70
2021/01/12 01:13:50;;;;;;;26.77;15.45;;;-1.20;99.90;;;;;;5071987;28;20042;-71
2021/01/12 01:16:16;;;;;;;29.30;15.98;;;-1.30;99.90;;;;;;5072818;28;20063;-68
2021/01/12 01:18:42;;;;;;;24.67;14.48;;;-1.30;99.90;;;;;;5072297;28;20033;-69
2021/01/12 01:21:12;;;;;;;27.42;14.73;;;-1.20;99.90;;;;;;5072999;28;20115;-74
2021/01/12 01:23:41;;;;;;;28.25;14.95;;;-1.30;99.90;;;;;;5072836;28;20035;-71
2021/01/12 01:26:07;;;;;;;24.35;13.63;;;-1.20;99.90;;;;;;5056188;28;20017;-73
2021/01/12 01:28:32;;;;;;;28.27;15.05;;;-1.10;99.90;;;;;;5054750;28;20021;-72
2021/01/12 01:30:58;;;;;;;24.40;13.90;;;-1.10;99.90;;;;;;5053261;28;20643;-73
2021/01/12 01:33:24;;;;;;;27.08;13.73;;;-1.10;99.90;;;;;;5052581;28;20033;-71
2021/01/12 01:35:50;;;;;;;24.90;13.98;;;-1.00;99.90;;;;;;5052247;28;20037;-71
2021/01/12 01:38:16;;;;;;;22.65;12.98;;;-1.00;99.90;;;;;;5052477;28;20025;-72
2021/01/12 01:40:42;;;;;;;22.75;12.60;;;-1.00;99.90;;;;;;5034250;28;20148;-71
2021/01/12 01:43:13;;;;;;;22.08;12.35;;;-1.00;99.90;;;;;;5051693;28;20033;-72
2021/01/12 01:45:39;;;;;;;20.35;11.63;;;-1.00;99.90;;;;;;5052274;28;20024;-72
2021/01/12 01:48:06;;;;;;;21.95;12.38;;;-1.00;99.90;;;;;;5052236;28;20029;-72
2021/01/12 01:50:32;;;;;;;20.75;11.93;;;-0.90;99.90;;;;;;5052123;28;20032;-70
2021/01/12 01:52:57;;;;;;;20.60;11.80;;;-0.70;99.90;;;;;;5051393;28;20032;-72
2021/01/12 01:55:24;;;;;;;20.60;11.63;;;-0.60;99.90;;;;;;5063543;28;20032;-71
2021/01/12 01:57:50;;;;;;;19.02;10.10;;;-0.50;99.90;;;;;;5053643;28;20032;-73
2021/01/12 02:00:18;;;;;;;18.13;10.93;;;-0.40;99.90;;;;;;5072391;28;20036;-74
2021/01/12 02:03:02;;;;;;;16.98;9.95;;;-0.30;99.90;;;;;;5071405;28;20519;-70
2021/01/12 02:05:30;;;;;;;19.50;9.75;;;-0.30;99.90;;;;;;5072081;28;20462;-71
2021/01/12 02:08:08;;;;;;;16.50;9.60;;;-0.30;99.90;;;;;;5070458;28;20027;-74
2021/01/12 02:10:40;;;;;;;14.48;8.38;;;-0.20;99.90;;;;;;5071291;28;20024;-73
2021/01/12 02:13:09;;;;;;;16.50;9.98;;;0.00;99.90;;;;;;5053739;28;20025;-74
2021/01/12 02:15:36;;;;;;;16.48;8.85;;;0.10;99.90;;;;;;5071400;28;20032;-72
2021/01/12 02:18:02;;;;;;;14.15;8.65;;;0.10;99.90;;;;;;5071913;28;20040;-71
2021/01/12 02:20:28;;;;;;;12.40;8.35;;;0.20;99.90;;;;;;5072006;28;20095;-72
2021/01/12 02:23:03;;;;;;;16.23;9.48;;;0.20;99.90;;;;;;5071295;28;20032;-73
2021/01/12 02:25:31;;;;;;;11.32;7.65;;;0.20;99.90;;;;;;5071394;28;20410;-73
2021/01/12 02:27:57;;;;;;;12.57;7.90;;;0.20;99.90;;;;;;5072140;28;20514;-72
2021/01/12 02:30:23;;;;;;;12.75;7.57;;;0.20;99.90;;;;;;5073341;28;20029;-72
2021/01/12 02:32:48;;;;;;;11.93;7.30;;;0.20;99.90;;;;;;5057552;28;20402;-72
2021/01/12 02:35:18;;;;;;;11.85;7.72;;;0.20;99.90;;;;;;5076539;28;20078;-72
2021/01/12 02:37:45;;;;;;;11.25;7.50;;;0.20;99.90;;;;;;5076618;28;20031;-73
2021/01/12 02:40:11;;;;;;;10.88;6.85;;;0.20;99.90;;;;;;5076614;28;20052;-72
2021/01/12 02:42:42;;;;;;;10.20;7.28;;;0.20;99.90;;;;;;5076561;28;20099;-72
2021/01/12 02:45:08;;;;;;;11.82;7.03;;;0.30;99.90;;;;;;5081597;28;20084;-72
2021/01/12 02:47:35;;;;;;;9.50;6.22;;;0.20;99.90;;;;;;5081961;28;20020;-73
2021/01/12 02:50:03;;;;;;;10.50;6.55;;;0.20;99.90;;;;;;5081640;28;20024;-72
2021/01/12 02:52:29;;;;;;;12.00;6.25;;;0.10;99.90;;;;;;5082397;28;20013;-72
2021/01/12 02:54:54;;;;;;;14.13;7.20;;;0.40;99.90;;;;;;5075110;28;20165;-73
2021/01/12 02:57:20;;;;;;;10.73;6.20;;;0.30;99.90;;;;;;5075671;28;20020;-71
2021/01/12 02:59:45;;;;;;;10.05;6.22;;;0.50;99.90;;;;;;5076571;28;20027;-73
2021/01/12 03:02:11;;;;;;;11.40;6.82;;;0.60;99.90;;;;;;5075450;28;20479;-73
2021/01/12 03:04:37;;;;;;;12.68;7.68;;;0.60;99.90;;;;;;5056674;28;20575;-72
2021/01/12 03:07:02;;;;;;;9.80;6.32;;;0.70;99.90;;;;;;5075016;28;20035;-72
2021/01/12 03:09:28;;;;;;;8.90;6.28;;;0.60;99.90;;;;;;5075039;28;20025;-72
2021/01/12 03:11:54;;;;;;;8.95;5.80;;;0.60;99.90;;;;;;5074783;28;20455;-73
2021/01/12 03:14:20;;;;;;;12.25;6.30;;;0.50;99.90;;;;;;5074474;28;20028;-72
2021/01/12 03:16:46;;;;;;;9.02;6.53;;;0.60;99.90;;;;;;5074704;28;20021;-72
2021/01/12 03:19:11;;;;;;;10.30;6.32;;;0.60;99.90;;;;;;5074778;28;20031;-72
2021/01/12 03:21:37;;;;;;;10.30;5.75;;;0.70;99.90;;;;;;5074774;28;20025;-71
2021/01/12 03:24:04;;;;;;;8.57;5.85;;;0.90;99.90;;;;;;5074057;28;20020;-71
2021/01/12 03:26:29;;;;;;;9.45;5.82;;;0.90;99.90;;;;;;5074278;28;20031;-71
2021/01/12 03:28:55;;;;;;;9.48;6.03;;;0.90;99.90;;;;;;5074804;28;20025;-71
2021/01/12 03:31:21;;;;;;;9.45;5.82;;;0.90;99.90;;;;;;5074587;28;20456;-71
2021/01/12 03:33:46;;;;;;;9.45;6.18;;;1.00;99.90;;;;;;5076580;28;20055;-70
2021/01/12 03:36:12;;;;;;;10.20;6.22;;;0.90;99.90;;;;;;5080138;28;20394;-72
2021/01/12 03:38:37;;;;;;;10.65;6.40;;;0.80;99.90;;;;;;5075359;28;20029;-72
2021/01/12 03:41:04;;;;;;;11.98;6.72;;;0.80;99.90;;;;;;5056149;28;20025;-71
2021/01/12 03:43:30;;;;;;;9.93;6.13;;;0.90;99.90;;;;;;5073620;28;20035;-72
2021/01/12 03:45:56;;;;;;;11.18;6.60;;;0.80;99.90;;;;;;5074177;28;20107;-73
2021/01/12 03:48:22;;;;;;;9.88;6.53;;;0.70;99.90;;;;;;5056293;28;20024;-71
2021/01/12 03:50:48;;;;;;;10.23;6.28;;;0.60;99.90;;;;;;5074456;28;20024;-71
2021/01/12 03:53:16;;;;;;;13.32;7.78;;;0.50;99.90;;;;;;5055692;28;20029;-71
2021/01/12 03:55:41;;;;;;;13.40;7.53;;;0.50;99.90;;;;;;5073637;28;20517;-72
2021/01/12 03:58:07;;;;;;;12.30;7.63;;;0.40;99.90;;;;;;5073052;28;20040;-73
2021/01/12 04:00:33;;;;;;;10.98;6.72;;;0.40;99.90;;;;;;5074318;28;20074;-72
2021/01/12 04:02:59;;;;;;;12.38;7.97;;;0.40;99.90;;;;;;5073489;28;20108;-72
2021/01/12 04:05:27;;;;;;;11.52;7.60;;;0.40;99.90;;;;;;5073865;28;20029;-70
2021/01/12 04:07:52;;;;;;;14.85;8.35;;;0.40;99.90;;;;;;5074004;28;20478;-72
2021/01/12 04:10:18;;;;;;;11.63;7.25;;;0.30;99.90;;;;;;5074221;28;20047;-71
2021/01/12 04:12:43;;;;;;;14.68;8.00;;;0.30;99.90;;;;;;5073807;28;20029;-71
2021/01/12 04:15:10;;;;;;;13.15;7.97;;;0.30;99.90;;;;;;5073494;28;20024;-71
2021/01/12 04:17:35;;;;;;;13.95;8.18;;;0.40;99.90;;;;;;5074011;28;20025;-72
2021/01/12 04:20:01;;;;;;;15.98;8.52;;;0.40;99.90;;;;;;5073888;28;20037;-72
2021/01/12 04:22:26;;;;;;;14.80;8.73;;;0.40;99.90;;;;;;5073932;28;20102;-74
2021/01/12 04:24:53;;;;;;;14.30;8.40;;;0.40;99.90;;;;;;5076768;28;20031;-71
2021/01/12 04:27:19;;;;;;;13.38;8.32;;;0.40;99.90;;;;;;5073849;28;20044;-73
2021/01/12 04:29:44;;;;;;;13.90;8.77;;;0.40;99.90;;;;;;5055424;28;20486;-72
2021/01/12 04:32:10;;;;;;;16.48;9.05;;;0.40;99.90;;;;;;5074024;28;20039;-71
2021/01/12 04:34:36;;;;;;;13.52;8.30;;;0.50;99.90;;;;;;5055284;28;20032;-72
2021/01/12 04:37:01;;;;;;;14.20;8.27;;;0.50;99.90;;;;;;5056502;28;20032;-71
2021/01/12 04:39:27;;;;;;;15.98;9.32;;;0.50;99.90;;;;;;5074093;28;20028;-72
2021/01/12 04:41:53;;;;;;;12.75;8.15;;;0.60;99.90;;;;;;5073978;28;20024;-73
2021/01/12 04:44:18;;;;;;;14.32;9.30;;;0.60;99.90;;;;;;5055210;28;20027;-72
2021/01/12 04:46:44;;;;;;;13.68;9.32;;;0.60;99.90;;;;;;5073869;28;20474;-71
2021/01/12 04:49:10;;;;;;;15.68;8.85;;;0.60;99.90;;;;;;5073653;28;20522;-72
2021/01/12 04:51:35;;;;;;;14.82;8.07;;;0.60;99.90;;;;;;5055319;28;20028;-71
2021/01/12 04:54:01;;;;;;;10.60;7.85;;;0.70;99.90;;;;;;5071605;28;20502;-71
2021/01/12 04:56:27;;;;;;;13.52;8.38;;;0.70;99.90;;;;;;5073328;28;20506;-71
2021/01/12 04:58:53;;;;;;;14.70;8.40;;;0.70;99.90;;;;;;5073373;28;20051;-72
2021/01/12 05:01:23;;;;;;;13.48;8.23;;;0.70;99.90;;;;;;5076520;28;20021;-72
2021/01/12 05:03:50;;;;;;;13.20;8.20;;;0.80;99.90;;;;;;5091211;28;20025;-70
2021/01/12 05:06:17;;;;;;;13.55;8.40;;;0.80;99.90;;;;;;5089947;28;20017;-72
2021/01/12 05:08:45;;;;;;;14.00;8.23;;;0.80;99.90;;;;;;5077348;28;20425;-71
2021/01/12 05:11:12;;;;;;;16.50;8.65;;;0.90;99.90;;;;;;5058326;28;20025;-72
2021/01/12 05:13:41;;;;;;;15.90;9.38;;;1.00;99.90;;;;;;5085081;28;20174;-70
2021/01/12 05:16:08;;;;;;;14.45;8.27;;;1.00;99.90;;;;;;5082106;28;20024;-72
2021/01/12 05:18:38;;;;;;;12.35;7.50;;;1.00;99.90;;;;;;5073408;28;20025;-72
2021/01/12 05:21:06;;;;;;;12.23;7.93;;;1.00;99.90;;;;;;5072988;28;20025;-72
2021/01/12 05:23:52;;;;;;;12.27;8.07;;;1.00;99.90;;;;;;5072900;28;20024;-70
2021/01/12 05:26:19;;;;;;;14.70;8.02;;;1.00;99.90;;;;;;5073612;28;20021;-72
2021/01/12 05:28:46;;;;;;;13.38;8.30;;;1.10;99.90;;;;;;5072647;28;20506;-72
2021/01/12 05:31:14;;;;;;;14.82;8.27;;;1.00;99.90;;;;;;5072637;28;20393;-71
2021/01/12 05:33:41;;;;;;;15.45;8.40;;;1.00;99.90;;;;;;5054034;28;20035;-71
2021/01/12 05:36:09;;;;;;;11.68;7.82;;;1.10;99.90;;;;;;5072540;28;20050;-71
2021/01/12 05:38:35;;;;;;;13.10;7.80;;;1.10;99.90;;;;;;5072290;28;20054;-71
2021/01/12 05:41:02;;;;;;;13.27;8.20;;;1.10;99.90;;;;;;5072258;28;20062;-71
2021/01/12 05:43:39;;;;;;;14.02;8.25;;;1.10;99.90;;;;;;5071405;28;20043;-72
2021/01/12 05:46:10;;;;;;;13.85;8.38;;;1.00;99.90;;;;;;5071997;28;20043;-71
2021/01/12 05:48:37;;;;;;;12.40;7.57;;;1.10;99.90;;;;;;5072595;28;20029;-71
2021/01/12 05:51:05;;;;;;;12.02;8.15;;;1.00;99.90;;;;;;5072881;28;20534;-70
2021/01/12 05:54:03;;;;;;;12.63;8.07;;;1.00;99.90;;;;;;5071707;28;20368;-71
2021/01/12 05:56:29;;;;;;;13.98;8.70;;;1.10;99.90;;;;;;5068387;28;20506;-72
2021/01/12 05:58:56;;;;;;;15.27;8.80;;;1.00;99.90;;;;;;5072294;28;20028;-71
2021/01/12 06:01:38;;;;;;;15.38;8.25;;;1.10;99.90;;;;;;5072300;28;20036;-72
2021/01/12 06:04:09;;;;;;;17.23;8.65;;;1.10;99.90;;;;;;5053384;28;20052;-72
2021/01/12 06:06:39;;;;;;;12.88;8.40;;;1.10;99.90;;;;;;5061172;28;20025;-72
2021/01/12 06:09:09;;;;;;;15.43;8.40;;;1.10;99.90;;;;;;5070772;28;20025;-71
2021/01/12 06:11:37;;;;;;;13.73;8.82;;;1.00;99.90;;;;;;5071022;28;20025;-71
2021/01/12 06:14:29;;;;;;;14.13;9.05;;;1.10;99.90;;;;;;5070916;28;20024;-71
2021/01/12 06:16:56;;;;;;;13.43;8.57;;;0.80;99.90;;;;;;5060945;28;20043;-71
2021/01/12 06:19:29;;;;;;;13.25;7.80;;;1.10;99.90;;;;;;5052117;28;20041;-71
2021/01/12 06:21:55;;;;;;;15.60;8.75;;;1.10;99.90;;;;;;5051983;28;20021;-70
2021/01/12 06:24:36;;;;;;;14.60;8.63;;;1.20;99.90;;;;;;5053905;28;20508;-70
2021/01/12 06:27:08;;;;;;;13.52;7.72;;;1.20;99.90;;;;;;5053530;28;20017;-71
2021/01/12 06:29:34;;;;;;;12.63;7.65;;;1.20;99.90;;;;;;5049103;28;20033;-69
2021/01/12 06:32:00;;;;;;;13.60;7.90;;;1.20;99.90;;;;;;5071491;28;20053;-69
2021/01/12 06:34:27;;;;;;;11.98;7.43;;;1.30;99.90;;;;;;5071409;28;20028;-68
2021/01/12 06:36:55;;;;;;;15.68;9.50;;;1.30;99.90;;;;;;5070931;28;20028;-69
2021/01/12 06:39:32;;;;;;;15.45;9.10;;;1.70;99.90;;;;;;5071769;28;20098;-67
2021/01/12 06:41:58;;;;;;;11.85;7.75;;;1.90;99.90;;;;;;5071757;28;20029;-74
2021/01/12 06:44:27;;;;;;;11.15;7.47;;;2.10;99.90;;;;;;5052868;28;20025;-72
2021/01/12 06:46:54;;;;;;;12.63;7.20;;;2.00;99.90;;;;;;5071261;28;20021;-72
2021/01/12 06:49:25;;;;;;;13.35;7.80;;;1.90;99.90;;;;;;5071780;28;20035;-72
2021/01/12 06:52:00;;;;;;;10.65;6.93;;;1.90;99.90;;;;;;5071487;28;20040;-71
2021/01/12 06:54:34;;;;;;;13.73;7.30;;;1.80;99.90;;;;;;5060876;28;20040;-73
2021/01/12 06:57:05;;;;;;;8.75;6.25;;;1.80;99.90;;;;;;5063709;28;20032;-69
2021/01/12 06:59:36;;;;;;;10.65;6.43;;;1.80;99.90;;;;;;5059582;28;20360;-70
2021/01/12 07:02:15;;;;;;;12.50;7.95;;;1.80;99.90;;;;;;5056556;28;20048;-73
2021/01/12 07:04:41;;;;;;;8.32;5.82;;;1.90;99.90;;;;;;5049976;28;20056;-68
2021/01/12 07:07:07;;;;;;;8.90;5.68;;;1.90;99.90;;;;;;5033218;28;20057;-73
2021/01/12 07:09:32;;;;;;;11.85;6.90;;;2.00;99.90;;;;;;5051387;28;20048;-68
2021/01/12 07:12:08;;;;;;;10.43;6.65;;;2.00;99.90;;;;;;5051316;28;20079;-68
2021/01/12 07:14:45;;;;;;;10.45;7.20;;;1.90;99.90;;;;;;5048719;28;20029;-70
2021/01/12 07:17:11;;;;;;;10.88;6.30;;;1.90;99.90;;;;;;5053033;28;20025;-68
2021/01/12 07:19:37;;;;;;;11.95;7.13;;;2.00;99.90;;;;;;5054219;28;20082;-72
2021/01/12 07:22:16;;;;;;;12.10;7.00;;;2.00;99.90;;;;;;5055215;28;20032;-71
2021/01/12 07:24:44;;;;;;;11.15;6.70;;;2.10;99.90;;;;;;5054160;28;20071;-71
2021/01/12 07:27:13;;;;;;;11.73;7.28;;;2.00;99.90;;;;;;5053575;28;20059;-71
2021/01/12 07:29:50;;;;;;;10.40;6.80;;;2.10;99.90;;;;;;5070100;28;20020;-72
2021/01/12 07:32:30;;;;;;;11.27;6.47;;;2.20;99.90;;;;;;5056903;28;20031;-71
2021/01/12 07:35:04;;;;;;;12.27;6.60;;;2.20;99.90;;;;;;5073886;28;20431;-72
2021/01/12 07:37:32;;;;;;;10.05;6.80;;;2.20;99.90;;;;;;5074672;28;20020;-71
2021/01/12 07:39:58;;;;;;;9.80;7.00;;;2.20;99.90;;;;;;5071083;28;20021;-71
2021/01/12 07:42:25;;;;;;;12.00;7.13;;;2.30;99.90;;;;;;5070775;28;20033;-71
2021/01/12 07:44:51;;;;;;;10.27;6.55;;;2.30;99.90;;;;;;5055859;28;20032;-73
2021/01/12 07:47:18;;;;;;;15.27;6.93;;;2.20;99.90;;;;;;5074645;28;20588;-71
2021/01/12 07:49:47;;;;;;;10.52;7.07;;;2.30;99.90;;;;;;5056868;28;20031;-73
2021/01/12 07:52:13;;;;;;;11.05;6.22;;;2.30;99.90;;;;;;5056697;28;20028;-70
2021/01/12 07:54:41;;;;;;;14.02;7.85;;;2.30;99.90;;;;;;5055848;28;20024;-72
2021/01/12 07:57:09;;;;;;;10.43;6.40;;;2.30;99.90;;;;;;5074539;28;20021;-71
2021/01/12 07:59:35;;;;;;;9.32;6.63;;;2.30;99.90;;;;;;5074472;28;20028;-70
2021/01/12 08:02:05;;;;;;;10.25;6.75;;;2.30;99.90;;;;;;5075368;28;20074;-71
2021/01/12 08:04:32;;;;;;;9.20;6.43;;;2.30;99.90;;;;;;5056040;28;20052;-71
2021/01/12 08:06:58;;;;;;;10.57;6.78;;;2.40;99.90;;;;;;5075005;28;20024;-71
2021/01/12 08:09:24;;;;;;;13.23;6.82;;;2.40;99.90;;;;;;5074734;28;20028;-69
2021/01/12 08:11:59;;;;;;;11.90;7.07;;;2.40;99.90;;;;;;5056128;28;20029;-72
2021/01/12 08:14:25;;;;;;;10.57;6.72;;;2.40;99.90;;;;;;5057010;28;20029;-71
2021/01/12 08:16:53;;;;;;;10.45;5.85;;;2.40;99.90;;;;;;5054011;28;20434;-71
2021/01/12 08:19:23;;;;;;;10.05;6.80;;;2.40;99.90;;;;;;5053630;28;20025;-73
2021/01/12 08:21:50;;;;;;;9.95;6.28;;;2.40;99.90;;;;;;5036479;28;20028;-71
2021/01/12 08:24:23;;;;;;;10.88;6.35;;;2.50;99.90;;;;;;5052797;28;20025;-72
2021/01/12 08:26:49;;;;;;;9.15;5.93;;;2.50;99.90;;;;;;5053954;28;20020;-71
2021/01/12 08:29:26;;;;;;;9.48;6.03;;;2.50;99.90;;;;;;5066483;28;20028;-73
2021/01/12 08:31:59;;;;;;;9.80;6.65;;;2.60;99.90;;;;;;5075113;28;20055;-71
2021/01/12 08:34:27;;;;;;;12.57;6.45;;;2.60;99.90;;;;;;5073292;28;20437;-72
2021/01/12 08:36:55;;;;;;;15.32;10.77;;;2.70;99.90;;;;;;5073656;28;20040;-72
2021/01/12 08:39:22;;;;;;;11.52;6.35;;;2.70;99.90;;;;;;5073689;28;20028;-72
2021/01/12 08:41:49;;;;;;;9.73;6.82;;;2.70;99.90;;;;;;5055687;28;20100;-71
2021/01/12 08:44:16;;;;;;;11.77;6.95;;;2.80;99.90;;;;;;5073120;28;20167;-72
2021/01/12 08:46:43;;;;;;;10.27;6.45;;;2.70;99.90;;;;;;5055494;28;20033;-70
2021/01/12 08:49:09;;;;;;;12.27;7.57;;;2.70;99.90;;;;;;5073183;28;20020;-71
2021/01/12 08:51:36;;;;;;;12.63;6.93;;;2.80;99.90;;;;;;5073269;28;20029;-71
2021/01/12 08:54:03;;;;;;;11.13;6.63;;;2.70;99.90;;;;;;5072557;28;20134;-71
2021/01/12 08:56:28;;;;;;;13.38;7.68;;;2.70;99.90;;;;;;5073178;28;20105;-72
2021/01/12 08:59:04;;;;;;;12.88;7.95;;;2.80;99.90;;;;;;5072868;28;20052;-71
2021/01/12 09:01:31;;;;;;;10.90;6.97;;;2.80;99.90;;;;;;5073266;28;20025;-70
2021/01/12 09:04:08;;;;;;;12.07;7.00;;;2.90;99.90;;;;;;5072218;28;20020;-71
2021/01/12 09:06:34;;;;;;;12.18;6.70;;;2.90;99.90;;;;;;5073012;28;20762;-71
2021/01/12 09:09:13;;;;;;;9.70;6.35;;;2.80;99.90;;;;;;5055402;28;20082;-74
2021/01/12 09:11:47;;;;;;;9.52;7.03;;;2.80;99.90;;;;;;5073122;28;20020;-73
2021/01/12 09:14:17;;;;;;;11.82;7.13;;;2.80;99.90;;;;;;5072460;28;20032;-72
2021/01/12 09:16:44;;;;;;;13.18;6.40;;;2.80;99.90;;;;;;5073864;28;20390;-72
2021/01/12 09:19:14;;;;;;;11.93;7.53;;;2.90;99.90;;;;;;5073451;28;20024;-72
2021/01/12 09:21:40;;;;;;;9.82;6.32;;;2.80;99.90;;;;;;5073198;28;20498;-70
2021/01/12 09:24:07;;;;;;;8.52;6.10;;;2.80;99.90;;;;;;5072519;28;20157;-70
2021/01/12 09:26:35;;;;;;;10.00;6.45;;;2.90;99.90;;;;;;5073027;28;20046;-72
2021/01/12 09:29:00;;;;;;;9.13;5.95;;;2.90;99.90;;;;;;5054792;28;20028;-72
2021/01/12 09:31:26;;;;;;;12.20;7.00;;;2.90;99.90;;;;;;5072801;28;20031;-73
2021/01/12 09:33:54;;;;;;;10.35;6.53;;;2.90;99.90;;;;;;5072344;28;20051;-73
2021/01/12 09:36:21;;;;;;;10.10;6.18;;;3.00;99.90;;;;;;5072415;28;20066;-74
2021/01/12 09:38:51;;;;;;;8.75;5.40;;;3.00;99.90;;;;;;5072772;28;20077;-73
2021/01/12 09:41:25;;;;;;;10.98;6.68;;;3.00;99.90;;;;;;5072364;28;20024;-75
2021/01/12 09:43:52;;;;;;;9.70;7.07;;;3.00;99.90;;;;;;5071664;28;20486;-74
2021/01/12 09:46:18;;;;;;;10.60;6.43;;;3.00;99.90;;;;;;5072338;28;20029;-71
2021/01/12 09:48:44;;;;;;;9.63;6.35;;;3.10;99.90;;;;;;5054512;28;20069;-71
2021/01/12 09:51:10;;;;;;;9.30;5.63;;;2.90;99.90;;;;;;5072988;28;20074;-71
2021/01/12 09:53:40;;;;;;;11.15;6.45;;;3.00;99.90;;;;;;5072103;28;20562;-70
2021/01/12 09:56:10;;;;;;;9.85;6.03;;;3.10;99.90;;;;;;5071890;28;20036;-72
2021/01/12 09:58:36;;;;;;;11.40;6.35;;;3.00;99.90;;;;;;5064775;28;20021;-72
2021/01/12 10:01:01;;;;;;;10.38;6.82;;;3.00;99.90;;;;;;5057079;28;20043;-73
2021/01/12 10:03:27;;;;;;;9.77;5.90;;;3.00;99.90;;;;;;5062830;28;20424;-72
2021/01/12 10:05:53;;;;;;;8.77;5.80;;;3.20;99.90;;;;;;5057374;28;20033;-71
2021/01/12 10:08:18;;;;;;;9.93;6.22;;;3.30;99.90;;;;;;5056961;28;20027;-71
2021/01/12 10:10:44;;;;;;;10.32;6.25;;;3.30;99.90;;;;;;5053356;28;20529;-73
2021/01/12 10:13:10;;;;;;;11.45;6.05;;;3.20;99.90;;;;;;5035466;28;20111;-73
2021/01/12 10:15:35;;;;;;;8.77;6.15;;;3.20;99.90;;;;;;5057097;28;20028;-71
2021/01/12 10:18:01;;;;;;;8.88;5.65;;;3.10;99.90;;;;;;5072843;28;20082;-72
2021/01/12 10:20:27;;;;;;;7.72;5.65;;;3.10;99.90;;;;;;5072796;28;20467;-70
2021/01/12 10:22:52;;;;;;;10.27;6.03;;;3.10;99.90;;;;;;5072101;28;20025;-71
2021/01/12 10:25:18;;;;;;;10.68;6.65;;;3.00;99.90;;;;;;5071213;28;20028;-71
2021/01/12 10:27:45;;;;;;;10.30;6.50;;;2.90;99.90;;;;;;5055651;28;20457;-69
2021/01/12 10:30:13;;;;;;;10.82;6.60;;;3.00;99.90;;;;;;5074393;28;20047;-70
2021/01/12 10:32:41;;;;;;;10.52;5.85;;;3.10;99.90;;;;;;5073686;28;20363;-71
2021/01/12 10:35:08;;;;;;;9.70;6.35;;;3.10;99.90;;;;;;5090679;28;20017;-70
2021/01/12 10:37:34;;;;;;;10.30;6.28;;;3.00;99.90;;;;;;5093176;28;20004;-71
2021/01/12 10:40:00;;;;;;;10.55;6.43;;;3.00;99.90;;;;;;5093483;28;20063;-72
2021/01/12 10:42:26;;;;;;;14.38;7.05;;;3.00;99.90;;;;;;5082446;28;20108;-72
2021/01/12 10:44:52;;;;;;;12.18;6.47;;;3.00;99.90;;;;;;5071438;28;20087;-70
2021/01/12 10:47:18;;;;;;;13.73;7.15;;;3.00;99.90;;;;;;5071760;28;20016;-73
2021/01/12 10:49:44;;;;;;;11.60;7.43;;;2.90;99.90;;;;;;5053667;28;20506;-73
2021/01/12 10:52:10;;;;;;;10.50;6.68;;;2.80;99.90;;;;;;5074089;28;20025;-71
2021/01/12 10:54:36;;;;;;;12.35;7.20;;;2.70;99.90;;;;;;5074679;28;20117;-70
2021/01/12 10:57:03;;;;;;;12.77;7.20;;;2.80;99.90;;;;;;5075471;28;20034;-71
2021/01/12 10:59:29;;;;;;;12.90;7.85;;;2.70;99.90;;;;;;5056980;28;20028;-70
2021/01/12 11:01:57;;;;;;;9.57;6.60;;;2.70;99.90;;;;;;5075600;28;20025;-69
2021/01/12 11:04:23;;;;;;;12.55;7.35;;;2.60;99.90;;;;;;5075134;28;20024;-67
2021/01/12 11:06:51;;;;;;;18.25;10.18;;;2.90;99.90;;;;;;5073935;28;20077;-68
2021/01/12 11:09:18;;;;;;;11.25;6.75;;;5.70;99.90;;;;;;5075225;28;20536;-69
2021/01/12 11:11:45;;;;;;;9.75;6.35;;;5.60;99.90;;;;;;5075247;28;20035;-70
2021/01/12 11:14:10;;;;;;;9.85;6.18;;;5.10;99.90;;;;;;5074354;28;20059;-73
2021/01/12 11:16:39;;;;;;;9.35;6.18;;;4.40;99.90;;;;;;5076188;28;20475;-74
2021/01/12 11:19:08;;;;;;;13.48;6.07;;;3.20;99.90;;;;;;5087274;28;20084;-72
2021/01/12 11:21:44;;;;;;;10.32;6.38;;;2.90;99.90;;;;;;5089030;28;20028;-73
2021/01/12 11:24:13;;;;;;;10.70;6.57;;;2.70;99.90;;;;;;5078184;28;20077;-72
2021/01/12 11:26:40;;;;;;;10.00;6.28;;;2.70;99.90;;;;;;5076050;28;20091;-73
2021/01/12 11:29:06;;;;;;;9.48;5.63;;;2.60;99.90;;;;;;5075473;28;20036;-72
2021/01/12 11:31:32;;;;;;;9.05;5.90;;;2.60;99.90;;;;;;5074872;28;20126;-69
2021/01/12 11:34:01;;;;;;;9.98;6.13;;;2.60;99.90;;;;;;5056344;28;20107;-70
2021/01/12 11:36:42;;;;;;;11.55;6.05;;;2.50;99.90;;;;;;5056677;28;20391;-70
2021/01/12 11:39:10;;;;;;;10.70;6.47;;;2.50;99.90;;;;;;5075023;28;20035;-70
2021/01/12 11:41:44;;;;;;;11.10;6.72;;;2.60;99.90;;;;;;5074852;28;20013;-71
2021/01/12 11:44:10;;;;;;;10.77;6.43;;;2.50;99.90;;;;;;5073787;28;20024;-69
2021/01/12 11:46:36;;;;;;;12.27;6.95;;;2.60;99.90;;;;;;5074440;28;20032;-69
2021/01/12 11:49:02;;;;;;;10.70;6.28;;;2.40;99.90;;;;;;5056805;28;20065;-69
2021/01/12 11:51:38;;;;;;;10.70;6.30;;;2.40;99.90;;;;;;5074817;28;20157;-72
2021/01/12 11:54:05;;;;;;;15.52;6.97;;;2.50;99.90;;;;;;5074252;28;20082;-69
2021/01/12 11:56:31;;;;;;;9.40;6.10;;;2.60;99.90;;;;;;5075144;28;20033;-70
2021/01/12 11:58:57;;;;;;;8.68;6.03;;;2.50;99.90;;;;;;5061271;28;20029;-71
2021/01/12 12:01:23;;;;;;;10.25;6.35;;;2.50;99.90;;;;;;5083458;28;20100;-73
2021/01/12 12:03:49;;;;;;;10.40;6.50;;;2.50;99.90;;;;;;5081717;28;20047;-73
2021/01/12 12:06:14;;;;;;;10.45;6.53;;;2.60;99.90;;;;;;5066161;28;20509;-70
2021/01/12 12:08:40;;;;;;;8.80;5.50;;;2.60;99.90;;;;;;5082050;28;20034;-70
2021/01/12 12:11:06;;;;;;;8.77;5.68;;;2.60;99.90;;;;;;5082168;28;20033;-69
2021/01/12 12:13:39;;;;;;;10.02;6.57;;;2.60;99.90;;;;;;5075352;28;20032;-71
2021/01/12 12:16:14;;;;;;;13.15;7.88;;;2.60;99.90;;;;;;5055067;28;20475;-70
2021/01/12 12:18:41;;;;;;;9.13;6.25;;;2.60;99.90;;;;;;5054557;28;20025;-71
2021/01/12 12:21:13;;;;;;;8.68;5.78;;;2.60;99.90;;;;;;5054408;28;20039;-69
2021/01/12 12:23:39;;;;;;;9.35;5.88;;;2.60;99.90;;;;;;5052910;28;20435;-71
2021/01/12 12:26:13;;;;;;;9.07;5.82;;;2.60;99.90;;;;;;5035515;28;20044;-70
2021/01/12 12:28:39;;;;;;;6.95;5.28;;;2.70;99.90;;;;;;5061276;28;20118;-72
2021/01/12 12:31:05;;;;;;;8.18;5.32;;;2.70;99.90;;;;;;5073334;28;20467;-73
2021/01/12 12:33:31;;;;;;;9.68;6.00;;;2.60;99.90;;;;;;5072941;28;20051;-70
2021/01/12 12:35:57;;;;;;;7.32;5.20;;;2.70;99.90;;;;;;5073278;28;20024;-68
2021/01/12 12:38:23;;;;;;;7.50;5.10;;;2.70;99.90;;;;;;5054710;28;20094;-73
2021/01/12 12:40:48;;;;;;;8.30;5.47;;;2.80;99.90;;;;;;5073073;28;20025;-70
2021/01/12 12:43:14;;;;;;;9.40;5.82;;;2.80;99.90;;;;;;5072638;28;20382;-74
2021/01/12 12:45:42;;;;;;;8.30;5.95;;;2.80;99.90;;;;;;5072735;28;20051;-73
2021/01/12 12:48:08;;;;;;;7.95;6.03;;;2.80;99.90;;;;;;5072792;28;20364;-70